Date,TemperatureHighF,TemperatureAvgF,TemperatureLowF,DewpointHighF,DewpointAvgF,DewpointLowF,HumidityHigh,HumidityAvg,HumidityLow,PressureMaxIn,PressureMinIn,WindSpeedMaxMPH,WindSpeedAvgMPH,GustSpeedMaxMPH,PrecipitationSumIn
2012-12-1,58.8,56.8,54.7,57.5,55.2,53.0,96,94,90,29.95,29.77,12,1,12,0.73
2012-12-2,58.1,51.6,44.9,56.5,50.2,43.6,97,95,90,30.03,29.61,15,0,15,0.01
2012-12-3,64.4,52.3,43.2,53.0,48.7,41.9,96,88,64,30.12,30.03,5,0,0,0.00
2012-12-4,58.7,54.4,49.0,54.6,52.1,47.2,96,92,84,30.15,30.05,6,0,0,0.44
2012-12-5,57.0,54.3,50.1,56.2,53.5,49.0,97,97,96,30.09,29.98,4,0,0,0.38
2012-12-6,54.2,51.6,45.2,53.4,50.7,44.1,97,97,95,30.03,29.96,5,0,0,0.00
2012-12-7,60.4,47.3,40.6,52.3,45.0,38.7,100,92,70,30.04,29.97,4,0,0,0.01
2012-12-8,57.3,45.5,38.2,45.5,40.9,35.8,100,85,56,30.02,29.93,5,0,0,0.00
2012-12-9,62.4,47.6,39.4,48.9,43.6,38.1,96,87,59,30.14,30.02,4,0,0,0.00
2012-12-10,64.5,49.0,41.3,52.3,45.1,39.7,96,87,61,30.16,29.99,6,0,0,0.01
2012-12-11,60.0,49.5,40.8,51.3,45.8,39.2,95,88,69,30.00,29.70,12,0,0,0.10
2012-12-12,54.0,45.4,39.1,46.0,41.8,37.0,95,87,69,29.80,29.70,10,0,0,0.09
2012-12-13,53.7,41.7,34.7,42.6,37.0,33.2,94,84,61,29.83,29.73,13,0,0,0.00
2012-12-14,51.6,41.3,34.5,41.3,36.8,32.6,95,85,62,29.97,29.73,5,0,0,0.00
2012-12-15,45.5,40.8,33.8,40.5,37.7,31.5,94,89,71,30.01,29.93,5,0,0,0.01
2012-12-16,52.1,47.9,40.8,47.3,42.3,37.7,94,82,59,30.05,29.89,10,0,0,0.01
2012-12-17,53.5,48.9,42.6,51.7,47.2,41.0,96,94,90,29.95,29.84,10,1,0,0.69
2012-12-18,49.7,39.6,32.7,41.0,32.9,26.5,96,78,43,30.11,29.84,11,1,0,0.00
2012-12-19,52.7,38.7,30.2,32.6,29.4,25.5,92,71,36,30.23,30.09,5,0,0,0.00
2012-12-20,59.4,45.9,33.1,33.1,28.1,22.9,83,52,32,30.13,29.87,8,0,0,0.00
2012-12-21,51.6,46.9,42.6,46.2,38.5,25.7,95,74,42,29.90,29.75,12,1,0,0.31
2012-12-22,51.5,47.0,43.9,47.4,44.6,42.1,95,91,80,30.00,29.71,9,1,0,0.83
2012-12-23,49.2,47.4,44.7,47.7,45.9,43.6,98,94,91,29.96,29.78,15,1,0,0.82
2012-12-24,54.4,44.6,38.9,48.5,42.2,37.3,100,92,75,30.11,29.95,8,0,0,0.00
2012-12-25,47.4,43.4,38.7,43.9,41.1,36.8,96,91,82,30.04,29.70,10,0,0,0.89
2012-12-26,50.3,44.6,38.8,46.9,43.0,37.2,96,94,86,29.98,29.74,9,1,0,0.09
2012-12-27,51.6,41.3,36.7,43.1,38.2,35.1,96,89,68,30.08,29.98,9,0,0,0.00
2012-12-28,47.4,41.1,35.1,40.3,36.7,32.0,100,85,66,30.11,29.98,5,0,0,0.00
2012-12-29,55.7,44.0,38.6,42.5,38.2,35.8,93,80,60,29.98,29.91,12,0,0,0.00
2012-12-30,53.7,41.8,35.5,41.5,34.8,24.5,94,77,56,30.05,29.93,13,1,0,0.00
2012-12-31,54.2,40.4,32.1,39.6,32.4,24.7,90,74,56,30.21,30.04,7,0,0,0.00